Terminal Aerodrome Forecast
Issued by NWS

Home | Current Version | Previous Version | Text Only | Print | Product List | Glossary Off
Versions: 1 2 3 4 5 6 7 8 9 10 11 12 13 14 15 16 17 18 19 20 21

000
FTUS43 KMPX 301121
TAFAXN
TAF
KAXN 301121Z 3012/3112 16005KT P6SM FEW012 BKN110
     FM301500 17011KT P6SM SCT015 SCT110
     FM310300 27007KT P6SM FEW012
     FM310900 35009KT P6SM BKN020=

USA.gov is the U.S. government's official web portal to all federal, state and local government web resources and services.